sensor_id;sensor_type;location;lat;lon;timestamp;P1;durP1;ratioP1;P2;durP2;ratioP2
5961;SDS011;3007;50.770;0.250;2022-10-31T00:00:41;13.47;;;2.20;;
5961;SDS011;3007;50.770;0.250;2022-10-31T00:03:08;7.43;;;1.60;;
5961;SDS011;3007;50.770;0.250;2022-10-31T00:05:35;8.73;;;1.47;;
5961;SDS011;3007;50.770;0.250;2022-10-31T00:08:06;8.80;;;2.00;;
5961;SDS011;3007;50.770;0.250;2022-10-31T00:10:32;7.23;;;1.90;;
5961;SDS011;3007;50.770;0.250;2022-10-31T00:12:59;9.73;;;1.93;;
5961;SDS011;3007;50.770;0.250;2022-10-31T00:15:26;8.63;;;1.63;;
5961;SDS011;3007;50.770;0.250;2022-10-31T00:17:54;6.97;;;1.50;;
5961;SDS011;3007;50.770;0.250;2022-10-31T00:20:21;6.70;;;1.30;;
5961;SDS011;3007;50.770;0.250;2022-10-31T00:22:48;15.17;;;2.43;;
5961;SDS011;3007;50.770;0.250;2022-10-31T00:25:15;9.70;;;1.50;;
5961;SDS011;3007;50.770;0.250;2022-10-31T00:27:42;5.93;;;1.70;;
5961;SDS011;3007;50.770;0.250;2022-10-31T00:30:09;9.43;;;1.80;;
5961;SDS011;3007;50.770;0.250;2022-10-31T00:32:36;5.90;;;1.77;;
5961;SDS011;3007;50.770;0.250;2022-10-31T00:35:07;6.67;;;1.60;;
5961;SDS011;3007;50.770;0.250;2022-10-31T00:37:34;11.53;;;1.60;;
5961;SDS011;3007;50.770;0.250;2022-10-31T00:40:01;10.00;;;2.00;;
5961;SDS011;3007;50.770;0.250;2022-10-31T00:42:28;6.43;;;1.23;;
5961;SDS011;3007;50.770;0.250;2022-10-31T00:44:55;9.73;;;2.23;;
5961;SDS011;3007;50.770;0.250;2022-10-31T00:47:22;8.43;;;1.90;;
5961;SDS011;3007;50.770;0.250;2022-10-31T00:49:48;8.70;;;1.67;;
5961;SDS011;3007;50.770;0.250;2022-10-31T00:52:17;8.73;;;1.40;;
5961;SDS011;3007;50.770;0.250;2022-10-31T00:54:44;5.17;;;1.73;;
5961;SDS011;3007;50.770;0.250;2022-10-31T00:57:10;8.90;;;1.80;;
5961;SDS011;3007;50.770;0.250;2022-10-31T00:59:37;5.57;;;1.10;;
5961;SDS011;3007;50.770;0.250;2022-10-31T01:02:04;8.83;;;1.90;;
5961;SDS011;3007;50.770;0.250;2022-10-31T01:04:31;12.93;;;2.50;;
5961;SDS011;3007;50.770;0.250;2022-10-31T01:06:58;7.03;;;1.50;;
5961;SDS011;3007;50.770;0.250;2022-10-31T01:09:26;6.00;;;1.57;;
5961;SDS011;3007;50.770;0.250;2022-10-31T01:11:53;10.57;;;2.27;;
5961;SDS011;3007;50.770;0.250;2022-10-31T01:14:20;6.73;;;1.47;;
5961;SDS011;3007;50.770;0.250;2022-10-31T01:16:47;9.33;;;1.60;;
5961;SDS011;3007;50.770;0.250;2022-10-31T01:19:13;7.90;;;1.80;;
5961;SDS011;3007;50.770;0.250;2022-10-31T01:21:40;5.07;;;1.30;;
5961;SDS011;3007;50.770;0.250;2022-10-31T01:24:07;11.23;;;1.93;;
5961;SDS011;3007;50.770;0.250;2022-10-31T01:26:36;8.33;;;1.67;;
5961;SDS011;3007;50.770;0.250;2022-10-31T01:29:04;6.50;;;1.70;;
5961;SDS011;3007;50.770;0.250;2022-10-31T01:31:33;7.60;;;1.47;;
5961;SDS011;3007;50.770;0.250;2022-10-31T01:34:02;8.63;;;2.10;;
5961;SDS011;3007;50.770;0.250;2022-10-31T01:36:30;9.40;;;1.90;;
5961;SDS011;3007;50.770;0.250;2022-10-31T01:38:58;9.47;;;1.83;;
5961;SDS011;3007;50.770;0.250;2022-10-31T01:41:28;6.90;;;1.53;;
5961;SDS011;3007;50.770;0.250;2022-10-31T01:43:59;7.33;;;1.30;;
5961;SDS011;3007;50.770;0.250;2022-10-31T01:46:29;4.17;;;1.43;;
5961;SDS011;3007;50.770;0.250;2022-10-31T01:48:59;8.63;;;1.50;;
5961;SDS011;3007;50.770;0.250;2022-10-31T01:51:33;8.43;;;2.07;;
5961;SDS011;3007;50.770;0.250;2022-10-31T01:54:03;12.87;;;2.00;;
5961;SDS011;3007;50.770;0.250;2022-10-31T01:56:32;11.30;;;1.50;;
5961;SDS011;3007;50.770;0.250;2022-10-31T01:59:06;8.70;;;1.87;;
5961;SDS011;3007;50.770;0.250;2022-10-31T02:01:35;10.60;;;1.60;;
5961;SDS011;3007;50.770;0.250;2022-10-31T02:04:02;9.57;;;1.90;;
5961;SDS011;3007;50.770;0.250;2022-10-31T02:06:32;5.27;;;1.40;;
5961;SDS011;3007;50.770;0.250;2022-10-31T02:09:04;8.13;;;1.53;;
5961;SDS011;3007;50.770;0.250;2022-10-31T02:11:31;10.57;;;2.03;;
5961;SDS011;3007;50.770;0.250;2022-10-31T02:14:00;11.30;;;2.70;;
5961;SDS011;3007;50.770;0.250;2022-10-31T02:16:30;7.03;;;1.43;;
5961;SDS011;3007;50.770;0.250;2022-10-31T02:18:57;10.60;;;2.00;;
5961;SDS011;3007;50.770;0.250;2022-10-31T02:21:25;8.23;;;1.73;;
5961;SDS011;3007;50.770;0.250;2022-10-31T02:27:11;13.43;;;1.83;;
5961;SDS011;3007;50.770;0.250;2022-10-31T02:30:07;8.20;;;1.33;;
5961;SDS011;3007;50.770;0.250;2022-10-31T02:32:42;5.00;;;1.30;;
5961;SDS011;3007;50.770;0.250;2022-10-31T02:35:21;6.20;;;1.40;;
5961;SDS011;3007;50.770;0.250;2022-10-31T02:38:07;8.10;;;1.50;;
5961;SDS011;3007;50.770;0.250;2022-10-31T02:40:44;7.70;;;2.23;;
5961;SDS011;3007;50.770;0.250;2022-10-31T02:43:18;8.37;;;1.70;;
5961;SDS011;3007;50.770;0.250;2022-10-31T02:45:48;7.50;;;1.40;;
5961;SDS011;3007;50.770;0.250;2022-10-31T02:48:22;8.73;;;1.57;;
5961;SDS011;3007;50.770;0.250;2022-10-31T02:50:53;5.10;;;1.67;;
5961;SDS011;3007;50.770;0.250;2022-10-31T02:53:23;9.40;;;1.57;;
5961;SDS011;3007;50.770;0.250;2022-10-31T02:55:51;13.40;;;2.03;;
5961;SDS011;3007;50.770;0.250;2022-10-31T02:58:24;9.27;;;1.90;;
5961;SDS011;3007;50.770;0.250;2022-10-31T03:01:00;11.50;;;1.87;;
5961;SDS011;3007;50.770;0.250;2022-10-31T03:03:53;9.50;;;2.03;;
5961;SDS011;3007;50.770;0.250;2022-10-31T03:06:32;8.97;;;1.47;;
5961;SDS011;3007;50.770;0.250;2022-10-31T03:09:07;14.10;;;2.30;;
5961;SDS011;3007;50.770;0.250;2022-10-31T03:11:41;8.20;;;2.10;;
5961;SDS011;3007;50.770;0.250;2022-10-31T03:14:12;10.57;;;1.90;;
5961;SDS011;3007;50.770;0.250;2022-10-31T03:16:45;10.20;;;1.67;;
5961;SDS011;3007;50.770;0.250;2022-10-31T03:19:16;10.93;;;1.77;;
5961;SDS011;3007;50.770;0.250;2022-10-31T03:21:46;5.70;;;2.07;;
5961;SDS011;3007;50.770;0.250;2022-10-31T03:24:17;8.90;;;1.97;;
5961;SDS011;3007;50.770;0.250;2022-10-31T03:26:46;10.20;;;2.17;;
5961;SDS011;3007;50.770;0.250;2022-10-31T03:29:19;5.10;;;1.40;;
5961;SDS011;3007;50.770;0.250;2022-10-31T03:31:50;13.33;;;2.00;;
5961;SDS011;3007;50.770;0.250;2022-10-31T03:34:22;11.10;;;2.13;;
5961;SDS011;3007;50.770;0.250;2022-10-31T03:36:49;9.17;;;1.67;;
5961;SDS011;3007;50.770;0.250;2022-10-31T03:39:20;8.10;;;1.50;;
5961;SDS011;3007;50.770;0.250;2022-10-31T03:41:49;5.53;;;1.23;;
5961;SDS011;3007;50.770;0.250;2022-10-31T03:44:20;7.53;;;1.80;;
5961;SDS011;3007;50.770;0.250;2022-10-31T03:46:50;8.67;;;1.63;;
5961;SDS011;3007;50.770;0.250;2022-10-31T03:49:17;8.67;;;1.57;;
5961;SDS011;3007;50.770;0.250;2022-10-31T03:51:46;4.13;;;1.40;;
5961;SDS011;3007;50.770;0.250;2022-10-31T03:54:22;6.80;;;1.30;;
5961;SDS011;3007;50.770;0.250;2022-10-31T03:56:53;7.33;;;1.50;;
5961;SDS011;3007;50.770;0.250;2022-10-31T03:59:24;15.70;;;1.70;;
5961;SDS011;3007;50.770;0.250;2022-10-31T04:01:57;4.97;;;1.50;;
5961;SDS011;3007;50.770;0.250;2022-10-31T04:04:33;5.17;;;1.37;;
5961;SDS011;3007;50.770;0.250;2022-10-31T04:07:02;6.40;;;1.53;;
5961;SDS011;3007;50.770;0.250;2022-10-31T04:09:31;11.53;;;1.97;;
5961;SDS011;3007;50.770;0.250;2022-10-31T04:12:01;7.67;;;1.50;;
5961;SDS011;3007;50.770;0.250;2022-10-31T04:14:33;13.00;;;1.50;;
5961;SDS011;3007;50.770;0.250;2022-10-31T04:17:03;6.00;;;1.83;;
5961;SDS011;3007;50.770;0.250;2022-10-31T04:19:34;6.30;;;1.53;;
5961;SDS011;3007;50.770;0.250;2022-10-31T04:22:01;8.70;;;1.40;;
5961;SDS011;3007;50.770;0.250;2022-10-31T04:24:29;11.20;;;1.87;;
5961;SDS011;3007;50.770;0.250;2022-10-31T04:26:56;7.47;;;1.50;;
5961;SDS011;3007;50.770;0.250;2022-10-31T04:29:23;5.43;;;1.97;;
5961;SDS011;3007;50.770;0.250;2022-10-31T04:31:49;10.80;;;1.70;;
5961;SDS011;3007;50.770;0.250;2022-10-31T04:34:16;10.87;;;1.90;;
5961;SDS011;3007;50.770;0.250;2022-10-31T04:36:43;8.80;;;1.80;;
5961;SDS011;3007;50.770;0.250;2022-10-31T04:39:11;7.87;;;1.57;;
5961;SDS011;3007;50.770;0.250;2022-10-31T04:41:38;13.03;;;1.97;;
5961;SDS011;3007;50.770;0.250;2022-10-31T04:44:05;9.83;;;1.53;;
5961;SDS011;3007;50.770;0.250;2022-10-31T04:46:34;8.53;;;1.70;;
5961;SDS011;3007;50.770;0.250;2022-10-31T04:49:01;8.33;;;1.67;;
5961;SDS011;3007;50.770;0.250;2022-10-31T04:51:28;10.57;;;1.50;;
5961;SDS011;3007;50.770;0.250;2022-10-31T04:53:54;7.27;;;1.87;;
5961;SDS011;3007;50.770;0.250;2022-10-31T04:56:23;12.40;;;1.87;;
5961;SDS011;3007;50.770;0.250;2022-10-31T04:58:49;8.57;;;1.60;;
5961;SDS011;3007;50.770;0.250;2022-10-31T05:01:16;10.33;;;1.63;;
5961;SDS011;3007;50.770;0.250;2022-10-31T05:03:43;9.83;;;1.70;;
5961;SDS011;3007;50.770;0.250;2022-10-31T05:06:10;7.77;;;1.50;;
5961;SDS011;3007;50.770;0.250;2022-10-31T05:08:37;6.97;;;1.77;;
5961;SDS011;3007;50.770;0.250;2022-10-31T05:11:04;11.80;;;1.83;;
5961;SDS011;3007;50.770;0.250;2022-10-31T05:13:33;7.60;;;1.63;;
5961;SDS011;3007;50.770;0.250;2022-10-31T05:15:59;10.70;;;2.10;;
5961;SDS011;3007;50.770;0.250;2022-10-31T05:18:26;6.57;;;1.93;;
5961;SDS011;3007;50.770;0.250;2022-10-31T05:20:53;8.70;;;1.73;;
5961;SDS011;3007;50.770;0.250;2022-10-31T05:23:20;6.13;;;1.70;;
5961;SDS011;3007;50.770;0.250;2022-10-31T05:25:47;8.33;;;2.07;;
5961;SDS011;3007;50.770;0.250;2022-10-31T05:28:13;7.03;;;1.70;;
5961;SDS011;3007;50.770;0.250;2022-10-31T05:30:42;10.97;;;1.70;;
5961;SDS011;3007;50.770;0.250;2022-10-31T05:33:08;10.73;;;2.03;;
5961;SDS011;3007;50.770;0.250;2022-10-31T05:35:35;7.53;;;1.37;;
5961;SDS011;3007;50.770;0.250;2022-10-31T05:38:05;9.20;;;1.50;;
5961;SDS011;3007;50.770;0.250;2022-10-31T05:40:32;6.70;;;1.77;;
5961;SDS011;3007;50.770;0.250;2022-10-31T05:42:59;8.80;;;1.63;;
5961;SDS011;3007;50.770;0.250;2022-10-31T05:45:26;7.67;;;1.70;;
5961;SDS011;3007;50.770;0.250;2022-10-31T05:47:57;8.43;;;1.93;;
5961;SDS011;3007;50.770;0.250;2022-10-31T05:50:25;9.40;;;2.00;;
5961;SDS011;3007;50.770;0.250;2022-10-31T05:52:54;7.63;;;1.63;;
5961;SDS011;3007;50.770;0.250;2022-10-31T05:55:21;7.80;;;1.30;;
5961;SDS011;3007;50.770;0.250;2022-10-31T05:57:48;7.10;;;1.70;;
5961;SDS011;3007;50.770;0.250;2022-10-31T06:00:16;6.53;;;1.63;;
5961;SDS011;3007;50.770;0.250;2022-10-31T06:02:44;7.77;;;1.80;;
5961;SDS011;3007;50.770;0.250;2022-10-31T06:05:12;8.77;;;1.47;;
5961;SDS011;3007;50.770;0.250;2022-10-31T06:07:40;7.37;;;1.73;;
5961;SDS011;3007;50.770;0.250;2022-10-31T06:10:07;8.97;;;2.27;;
5961;SDS011;3007;50.770;0.250;2022-10-31T06:12:35;13.93;;;1.50;;
5961;SDS011;3007;50.770;0.250;2022-10-31T06:15:03;7.93;;;1.93;;
5961;SDS011;3007;50.770;0.250;2022-10-31T06:17:32;5.70;;;1.20;;
5961;SDS011;3007;50.770;0.250;2022-10-31T06:20:00;6.03;;;1.73;;
5961;SDS011;3007;50.770;0.250;2022-10-31T06:22:28;6.37;;;1.60;;
5961;SDS011;3007;50.770;0.250;2022-10-31T06:24:55;6.20;;;1.73;;
5961;SDS011;3007;50.770;0.250;2022-10-31T06:27:22;7.17;;;1.63;;
5961;SDS011;3007;50.770;0.250;2022-10-31T06:29:49;11.27;;;2.00;;
5961;SDS011;3007;50.770;0.250;2022-10-31T06:32:16;5.40;;;1.70;;
5961;SDS011;3007;50.770;0.250;2022-10-31T06:34:45;5.87;;;2.10;;
5961;SDS011;3007;50.770;0.250;2022-10-31T06:37:13;5.03;;;1.43;;
5961;SDS011;3007;50.770;0.250;2022-10-31T06:39:42;12.10;;;2.20;;
5961;SDS011;3007;50.770;0.250;2022-10-31T06:42:09;10.40;;;3.10;;
5961;SDS011;3007;50.770;0.250;2022-10-31T06:44:36;9.53;;;1.47;;
5961;SDS011;3007;50.770;0.250;2022-10-31T06:47:06;10.83;;;2.00;;
5961;SDS011;3007;50.770;0.250;2022-10-31T06:49:33;12.13;;;2.57;;
5961;SDS011;3007;50.770;0.250;2022-10-31T06:52:00;5.63;;;1.50;;
5961;SDS011;3007;50.770;0.250;2022-10-31T06:54:28;6.80;;;1.80;;
5961;SDS011;3007;50.770;0.250;2022-10-31T06:56:56;6.10;;;1.60;;
5961;SDS011;3007;50.770;0.250;2022-10-31T06:59:23;9.73;;;1.90;;
5961;SDS011;3007;50.770;0.250;2022-10-31T07:01:50;6.40;;;1.87;;
5961;SDS011;3007;50.770;0.250;2022-10-31T07:04:17;8.13;;;3.20;;
5961;SDS011;3007;50.770;0.250;2022-10-31T07:06:44;13.40;;;2.57;;
5961;SDS011;3007;50.770;0.250;2022-10-31T07:09:11;5.37;;;2.10;;
5961;SDS011;3007;50.770;0.250;2022-10-31T07:11:38;8.60;;;2.10;;
5961;SDS011;3007;50.770;0.250;2022-10-31T07:14:06;6.80;;;2.20;;
5961;SDS011;3007;50.770;0.250;2022-10-31T07:16:33;5.30;;;1.60;;
5961;SDS011;3007;50.770;0.250;2022-10-31T07:19:00;6.83;;;1.80;;
5961;SDS011;3007;50.770;0.250;2022-10-31T07:21:26;9.60;;;2.80;;
5961;SDS011;3007;50.770;0.250;2022-10-31T07:23:53;8.40;;;3.33;;
5961;SDS011;3007;50.770;0.250;2022-10-31T07:26:20;8.93;;;1.97;;
5961;SDS011;3007;50.770;0.250;2022-10-31T07:28:47;10.77;;;2.00;;
5961;SDS011;3007;50.770;0.250;2022-10-31T07:31:15;6.67;;;1.40;;
5961;SDS011;3007;50.770;0.250;2022-10-31T07:33:42;8.37;;;2.13;;
5961;SDS011;3007;50.770;0.250;2022-10-31T07:36:09;9.13;;;1.57;;
5961;SDS011;3007;50.770;0.250;2022-10-31T07:38:36;5.70;;;1.67;;
5961;SDS011;3007;50.770;0.250;2022-10-31T07:41:03;7.00;;;1.50;;
5961;SDS011;3007;50.770;0.250;2022-10-31T07:43:30;13.20;;;2.00;;
5961;SDS011;3007;50.770;0.250;2022-10-31T07:45:57;6.07;;;1.80;;
5961;SDS011;3007;50.770;0.250;2022-10-31T07:48:25;5.53;;;1.80;;
5961;SDS011;3007;50.770;0.250;2022-10-31T07:50:52;4.83;;;1.43;;
5961;SDS011;3007;50.770;0.250;2022-10-31T07:53:19;5.73;;;2.20;;
5961;SDS011;3007;50.770;0.250;2022-10-31T07:55:45;4.17;;;2.00;;
5961;SDS011;3007;50.770;0.250;2022-10-31T07:58:13;6.63;;;1.57;;
5961;SDS011;3007;50.770;0.250;2022-10-31T08:00:41;9.07;;;2.40;;
5961;SDS011;3007;50.770;0.250;2022-10-31T08:03:10;12.57;;;2.40;;
5961;SDS011;3007;50.770;0.250;2022-10-31T08:05:40;5.63;;;1.70;;
5961;SDS011;3007;50.770;0.250;2022-10-31T08:08:07;5.13;;;2.57;;
5961;SDS011;3007;50.770;0.250;2022-10-31T08:10:35;9.17;;;2.33;;
5961;SDS011;3007;50.770;0.250;2022-10-31T08:13:03;9.27;;;1.97;;
5961;SDS011;3007;50.770;0.250;2022-10-31T08:15:31;5.23;;;1.90;;
5961;SDS011;3007;50.770;0.250;2022-10-31T08:17:59;9.53;;;1.80;;
5961;SDS011;3007;50.770;0.250;2022-10-31T08:20:27;5.90;;;1.90;;
5961;SDS011;3007;50.770;0.250;2022-10-31T08:22:56;4.33;;;1.70;;
5961;SDS011;3007;50.770;0.250;2022-10-31T08:25:24;10.20;;;1.70;;
5961;SDS011;3007;50.770;0.250;2022-10-31T08:27:53;5.17;;;1.57;;
5961;SDS011;3007;50.770;0.250;2022-10-31T08:30:21;9.83;;;2.23;;
5961;SDS011;3007;50.770;0.250;2022-10-31T08:32:56;8.20;;;1.83;;
5961;SDS011;3007;50.770;0.250;2022-10-31T08:35:25;5.57;;;1.77;;
5961;SDS011;3007;50.770;0.250;2022-10-31T08:37:52;10.00;;;1.40;;
5961;SDS011;3007;50.770;0.250;2022-10-31T08:40:21;5.43;;;1.60;;
5961;SDS011;3007;50.770;0.250;2022-10-31T08:42:55;9.07;;;2.00;;
5961;SDS011;3007;50.770;0.250;2022-10-31T08:45:22;10.00;;;1.93;;
5961;SDS011;3007;50.770;0.250;2022-10-31T08:47:49;5.18;;;2.30;;
5961;SDS011;3007;50.770;0.250;2022-10-31T08:50:17;4.27;;;1.60;;
5961;SDS011;3007;50.770;0.250;2022-10-31T08:52:44;8.00;;;1.77;;
5961;SDS011;3007;50.770;0.250;2022-10-31T08:55:11;6.50;;;1.73;;
5961;SDS011;3007;50.770;0.250;2022-10-31T08:57:39;8.75;;;1.90;;
5961;SDS011;3007;50.770;0.250;2022-10-31T09:00:06;5.43;;;1.52;;
5961;SDS011;3007;50.770;0.250;2022-10-31T09:02:34;8.02;;;1.77;;
5961;SDS011;3007;50.770;0.250;2022-10-31T09:05:07;5.90;;;1.33;;
5961;SDS011;3007;50.770;0.250;2022-10-31T09:07:34;6.78;;;1.88;;
5961;SDS011;3007;50.770;0.250;2022-10-31T09:10:01;5.90;;;1.60;;
5961;SDS011;3007;50.770;0.250;2022-10-31T09:12:28;5.35;;;1.23;;
5961;SDS011;3007;50.770;0.250;2022-10-31T09:14:56;8.30;;;1.83;;
5961;SDS011;3007;50.770;0.250;2022-10-31T09:17:25;4.33;;;1.60;;
5961;SDS011;3007;50.770;0.250;2022-10-31T09:20:00;8.53;;;1.50;;
5961;SDS011;3007;50.770;0.250;2022-10-31T09:22:27;8.53;;;2.00;;
5961;SDS011;3007;50.770;0.250;2022-10-31T09:24:53;4.03;;;1.50;;
5961;SDS011;3007;50.770;0.250;2022-10-31T09:27:20;8.90;;;1.65;;
5961;SDS011;3007;50.770;0.250;2022-10-31T09:29:47;3.67;;;1.27;;
5961;SDS011;3007;50.770;0.250;2022-10-31T09:32:22;5.53;;;1.67;;
5961;SDS011;3007;50.770;0.250;2022-10-31T09:34:49;7.23;;;1.27;;
5961;SDS011;3007;50.770;0.250;2022-10-31T09:37:16;5.50;;;2.03;;
5961;SDS011;3007;50.770;0.250;2022-10-31T09:39:43;3.88;;;1.30;;
5961;SDS011;3007;50.770;0.250;2022-10-31T09:42:19;6.37;;;1.50;;
5961;SDS011;3007;50.770;0.250;2022-10-31T09:45:03;4.63;;;1.70;;
5961;SDS011;3007;50.770;0.250;2022-10-31T09:47:43;3.25;;;1.25;;
5961;SDS011;3007;50.770;0.250;2022-10-31T09:50:22;5.30;;;1.23;;
5961;SDS011;3007;50.770;0.250;2022-10-31T09:52:57;5.10;;;1.40;;
5961;SDS011;3007;50.770;0.250;2022-10-31T09:55:27;5.57;;;1.40;;
5961;SDS011;3007;50.770;0.250;2022-10-31T09:58:00;6.27;;;1.20;;
5961;SDS011;3007;50.770;0.250;2022-10-31T10:00:28;5.73;;;1.10;;
5961;SDS011;3007;50.770;0.250;2022-10-31T10:02:59;5.40;;;1.45;;
5961;SDS011;3007;50.770;0.250;2022-10-31T10:05:34;3.93;;;1.13;;
5961;SDS011;3007;50.770;0.250;2022-10-31T10:08:07;1.40;;;1.00;;
5961;SDS011;3007;50.770;0.250;2022-10-31T10:10:42;5.20;;;1.30;;
5961;SDS011;3007;50.770;0.250;2022-10-31T10:16:16;3.80;;;1.05;;
5961;SDS011;3007;50.770;0.250;2022-10-31T10:18:55;9.17;;;1.77;;
5961;SDS011;3007;50.770;0.250;2022-10-31T10:21:31;4.10;;;1.10;;
5961;SDS011;3007;50.770;0.250;2022-10-31T10:24:14;4.55;;;1.48;;
5961;SDS011;3007;50.770;0.250;2022-10-31T10:26:52;4.70;;;1.20;;
5961;SDS011;3007;50.770;0.250;2022-10-31T10:29:29;3.33;;;1.10;;
5961;SDS011;3007;50.770;0.250;2022-10-31T10:32:05;5.40;;;1.33;;
5961;SDS011;3007;50.770;0.250;2022-10-31T10:34:39;4.82;;;1.30;;
5961;SDS011;3007;50.770;0.250;2022-10-31T10:37:14;5.53;;;1.35;;
5961;SDS011;3007;50.770;0.250;2022-10-31T10:39:51;4.10;;;1.17;;
5961;SDS011;3007;50.770;0.250;2022-10-31T10:42:20;4.93;;;1.13;;
5961;SDS011;3007;50.770;0.250;2022-10-31T10:45:13;2.55;;;1.00;;
5961;SDS011;3007;50.770;0.250;2022-10-31T10:48:04;2.90;;;1.30;;
5961;SDS011;3007;50.770;0.250;2022-10-31T10:50:36;3.92;;;1.35;;
5961;SDS011;3007;50.770;0.250;2022-10-31T10:53:09;2.80;;;0.90;;
5961;SDS011;3007;50.770;0.250;2022-10-31T10:55:56;3.40;;;1.00;;
5961;SDS011;3007;50.770;0.250;2022-10-31T10:58:30;1.73;;;0.88;;
5961;SDS011;3007;50.770;0.250;2022-10-31T11:00:56;6.60;;;1.80;;
5961;SDS011;3007;50.770;0.250;2022-10-31T11:03:23;2.42;;;1.02;;
5961;SDS011;3007;50.770;0.250;2022-10-31T11:05:52;4.10;;;1.08;;
5961;SDS011;3007;50.770;0.250;2022-10-31T11:08:25;6.15;;;1.05;;
5961;SDS011;3007;50.770;0.250;2022-10-31T11:10:58;3.00;;;1.20;;
5961;SDS011;3007;50.770;0.250;2022-10-31T11:13:27;2.67;;;1.17;;
5961;SDS011;3007;50.770;0.250;2022-10-31T11:15:56;6.00;;;1.20;;
5961;SDS011;3007;50.770;0.250;2022-10-31T11:18:25;3.58;;;1.33;;
5961;SDS011;3007;50.770;0.250;2022-10-31T11:20:55;7.13;;;1.20;;
5961;SDS011;3007;50.770;0.250;2022-10-31T11:23:24;3.20;;;1.20;;
5961;SDS011;3007;50.770;0.250;2022-10-31T11:25:53;3.63;;;1.20;;
5961;SDS011;3007;50.770;0.250;2022-10-31T11:28:23;6.63;;;1.65;;
5961;SDS011;3007;50.770;0.250;2022-10-31T11:30:52;4.53;;;1.58;;
5961;SDS011;3007;50.770;0.250;2022-10-31T11:33:22;9.20;;;2.22;;
5961;SDS011;3007;50.770;0.250;2022-10-31T11:35:55;6.95;;;1.70;;
5961;SDS011;3007;50.770;0.250;2022-10-31T11:38:23;5.82;;;1.50;;
5961;SDS011;3007;50.770;0.250;2022-10-31T11:40:53;4.70;;;1.55;;
5961;SDS011;3007;50.770;0.250;2022-10-31T11:43:22;4.47;;;1.50;;
5961;SDS011;3007;50.770;0.250;2022-10-31T11:45:49;4.30;;;1.50;;
5961;SDS011;3007;50.770;0.250;2022-10-31T11:48:17;4.03;;;1.55;;
5961;SDS011;3007;50.770;0.250;2022-10-31T11:50:49;4.78;;;1.80;;
5961;SDS011;3007;50.770;0.250;2022-10-31T11:53:20;4.05;;;1.42;;
5961;SDS011;3007;50.770;0.250;2022-10-31T11:55:59;6.60;;;1.70;;
5961;SDS011;3007;50.770;0.250;2022-10-31T11:58:29;7.25;;;1.52;;
5961;SDS011;3007;50.770;0.250;2022-10-31T12:00:57;6.57;;;1.58;;
5961;SDS011;3007;50.770;0.250;2022-10-31T12:03:29;5.68;;;1.23;;
5961;SDS011;3007;50.770;0.250;2022-10-31T12:06:05;4.53;;;1.33;;
5961;SDS011;3007;50.770;0.250;2022-10-31T12:08:38;5.50;;;1.63;;
5961;SDS011;3007;50.770;0.250;2022-10-31T12:11:09;4.03;;;1.35;;
5961;SDS011;3007;50.770;0.250;2022-10-31T12:13:46;5.25;;;1.63;;
5961;SDS011;3007;50.770;0.250;2022-10-31T12:16:25;7.03;;;1.40;;
5961;SDS011;3007;50.770;0.250;2022-10-31T12:18:57;4.25;;;1.30;;
5961;SDS011;3007;50.770;0.250;2022-10-31T12:21:42;5.93;;;1.52;;
5961;SDS011;3007;50.770;0.250;2022-10-31T12:24:23;5.65;;;1.48;;
5961;SDS011;3007;50.770;0.250;2022-10-31T12:27:06;3.67;;;1.40;;
5961;SDS011;3007;50.770;0.250;2022-10-31T12:29:49;3.63;;;1.10;;
5961;SDS011;3007;50.770;0.250;2022-10-31T12:32:30;1.52;;;0.88;;
5961;SDS011;3007;50.770;0.250;2022-10-31T12:35:16;4.75;;;1.02;;
5961;SDS011;3007;50.770;0.250;2022-10-31T12:38:02;3.45;;;1.30;;
5961;SDS011;3007;50.770;0.250;2022-10-31T12:41:01;3.90;;;1.20;;
5961;SDS011;3007;50.770;0.250;2022-10-31T12:43:46;5.05;;;1.90;;
5961;SDS011;3007;50.770;0.250;2022-10-31T12:46:22;6.90;;;1.10;;
5961;SDS011;3007;50.770;0.250;2022-10-31T12:48:59;4.32;;;1.05;;
5961;SDS011;3007;50.770;0.250;2022-10-31T12:51:40;7.20;;;1.17;;
5961;SDS011;3007;50.770;0.250;2022-10-31T12:54:23;5.13;;;1.30;;
5961;SDS011;3007;50.770;0.250;2022-10-31T12:57:01;5.18;;;1.20;;
5961;SDS011;3007;50.770;0.250;2022-10-31T12:59:37;3.33;;;1.15;;
5961;SDS011;3007;50.770;0.250;2022-10-31T13:02:10;5.72;;;1.67;;
5961;SDS011;3007;50.770;0.250;2022-10-31T13:04:43;6.05;;;1.52;;
5961;SDS011;3007;50.770;0.250;2022-10-31T13:07:15;5.82;;;1.40;;
5961;SDS011;3007;50.770;0.250;2022-10-31T13:09:47;4.75;;;1.33;;
5961;SDS011;3007;50.770;0.250;2022-10-31T13:12:21;5.72;;;1.10;;
5961;SDS011;3007;50.770;0.250;2022-10-31T13:14:50;3.63;;;1.40;;
5961;SDS011;3007;50.770;0.250;2022-10-31T13:17:21;5.00;;;2.10;;
5961;SDS011;3007;50.770;0.250;2022-10-31T13:19:52;2.78;;;1.33;;
5961;SDS011;3007;50.770;0.250;2022-10-31T13:22:23;5.70;;;1.48;;
5961;SDS011;3007;50.770;0.250;2022-10-31T13:24:53;6.35;;;1.90;;
5961;SDS011;3007;50.770;0.250;2022-10-31T13:27:25;3.42;;;1.45;;
5961;SDS011;3007;50.770;0.250;2022-10-31T13:29:58;3.92;;;1.88;;
5961;SDS011;3007;50.770;0.250;2022-10-31T13:32:28;8.98;;;1.63;;
5961;SDS011;3007;50.770;0.250;2022-10-31T13:35:04;5.18;;;1.67;;
5961;SDS011;3007;50.770;0.250;2022-10-31T13:37:37;5.75;;;1.70;;
5961;SDS011;3007;50.770;0.250;2022-10-31T13:40:12;5.75;;;1.42;;
5961;SDS011;3007;50.770;0.250;2022-10-31T13:42:51;4.10;;;1.60;;
5961;SDS011;3007;50.770;0.250;2022-10-31T13:45:22;5.65;;;2.05;;
5961;SDS011;3007;50.770;0.250;2022-10-31T13:47:57;3.58;;;1.80;;
5961;SDS011;3007;50.770;0.250;2022-10-31T13:50:26;7.05;;;2.10;;
5961;SDS011;3007;50.770;0.250;2022-10-31T13:53:03;5.72;;;2.20;;
5961;SDS011;3007;50.770;0.250;2022-10-31T13:55:38;8.88;;;2.53;;
5961;SDS011;3007;50.770;0.250;2022-10-31T13:58:19;6.72;;;2.83;;
5961;SDS011;3007;50.770;0.250;2022-10-31T14:01:11;7.43;;;3.45;;
5961;SDS011;3007;50.770;0.250;2022-10-31T14:03:46;6.93;;;3.20;;
5961;SDS011;3007;50.770;0.250;2022-10-31T14:06:22;6.25;;;3.67;;
5961;SDS011;3007;50.770;0.250;2022-10-31T14:09:00;7.60;;;3.13;;
5961;SDS011;3007;50.770;0.250;2022-10-31T14:11:28;10.73;;;3.10;;
5961;SDS011;3007;50.770;0.250;2022-10-31T14:13:57;8.32;;;4.22;;
5961;SDS011;3007;50.770;0.250;2022-10-31T14:16:26;7.07;;;3.65;;
5961;SDS011;3007;50.770;0.250;2022-10-31T14:18:57;10.68;;;3.78;;
5961;SDS011;3007;50.770;0.250;2022-10-31T14:21:27;7.03;;;3.92;;
5961;SDS011;3007;50.770;0.250;2022-10-31T14:23:56;10.43;;;4.05;;
5961;SDS011;3007;50.770;0.250;2022-10-31T14:26:31;10.82;;;4.07;;
5961;SDS011;3007;50.770;0.250;2022-10-31T14:29:01;10.90;;;4.82;;
5961;SDS011;3007;50.770;0.250;2022-10-31T14:31:51;7.28;;;4.47;;
5961;SDS011;3007;50.770;0.250;2022-10-31T14:34:21;8.95;;;4.75;;
5961;SDS011;3007;50.770;0.250;2022-10-31T14:36:59;10.15;;;4.90;;
5961;SDS011;3007;50.770;0.250;2022-10-31T14:39:46;11.82;;;5.00;;
5961;SDS011;3007;50.770;0.250;2022-10-31T14:42:31;7.40;;;4.45;;
5961;SDS011;3007;50.770;0.250;2022-10-31T14:45:30;10.02;;;4.38;;
5961;SDS011;3007;50.770;0.250;2022-10-31T14:48:11;7.43;;;4.10;;
5961;SDS011;3007;50.770;0.250;2022-10-31T14:50:51;13.13;;;5.15;;
5961;SDS011;3007;50.770;0.250;2022-10-31T14:53:21;9.25;;;4.80;;
5961;SDS011;3007;50.770;0.250;2022-10-31T14:55:52;7.33;;;4.00;;
5961;SDS011;3007;50.770;0.250;2022-10-31T14:58:21;9.70;;;4.40;;
5961;SDS011;3007;50.770;0.250;2022-10-31T15:00:54;11.38;;;4.72;;
5961;SDS011;3007;50.770;0.250;2022-10-31T15:03:24;10.63;;;4.53;;
5961;SDS011;3007;50.770;0.250;2022-10-31T15:05:56;11.73;;;4.97;;
5961;SDS011;3007;50.770;0.250;2022-10-31T15:08:27;10.82;;;5.45;;
5961;SDS011;3007;50.770;0.250;2022-10-31T15:10:58;10.53;;;4.70;;
5961;SDS011;3007;50.770;0.250;2022-10-31T15:13:29;9.07;;;4.13;;
5961;SDS011;3007;50.770;0.250;2022-10-31T15:15:57;10.95;;;4.38;;
5961;SDS011;3007;50.770;0.250;2022-10-31T15:18:25;12.77;;;4.33;;
5961;SDS011;3007;50.770;0.250;2022-10-31T15:20:54;12.45;;;4.47;;
5961;SDS011;3007;50.770;0.250;2022-10-31T15:23:23;9.70;;;3.90;;
5961;SDS011;3007;50.770;0.250;2022-10-31T15:25:57;7.78;;;4.05;;
5961;SDS011;3007;50.770;0.250;2022-10-31T15:28:27;12.32;;;4.75;;
5961;SDS011;3007;50.770;0.250;2022-10-31T15:30:58;10.25;;;5.05;;
5961;SDS011;3007;50.770;0.250;2022-10-31T15:33:27;10.93;;;4.65;;
5961;SDS011;3007;50.770;0.250;2022-10-31T15:35:55;9.55;;;4.65;;
5961;SDS011;3007;50.770;0.250;2022-10-31T15:38:24;7.68;;;4.80;;
5961;SDS011;3007;50.770;0.250;2022-10-31T15:40:55;8.02;;;4.75;;